sensor_id;sensor_type;location;lat;lon;timestamp;P1;durP1;ratioP1;P2;durP2;ratioP2
42602;SDS011;28233;55.748;48.752;2022-09-01T00:00:53;32.50;;;22.13;;
42602;SDS011;28233;55.748;48.752;2022-09-01T00:02:56;35.55;;;23.60;;
42602;SDS011;28233;55.748;48.752;2022-09-01T00:04:59;38.75;;;23.23;;
42602;SDS011;28233;55.748;48.752;2022-09-01T00:07:05;34.83;;;21.75;;
42602;SDS011;28233;55.748;48.752;2022-09-01T00:09:14;30.15;;;20.38;;
42602;SDS011;28233;55.748;48.752;2022-09-01T00:11:19;38.45;;;20.98;;
42602;SDS011;28233;55.748;48.752;2022-09-01T00:13:23;29.95;;;20.95;;
42602;SDS011;28233;55.748;48.752;2022-09-01T00:15:26;34.72;;;21.08;;
42602;SDS011;28233;55.748;48.752;2022-09-01T00:17:29;28.20;;;19.67;;
42602;SDS011;28233;55.748;48.752;2022-09-01T00:19:32;29.05;;;20.05;;
42602;SDS011;28233;55.748;48.752;2022-09-01T00:21:38;26.58;;;19.77;;
42602;SDS011;28233;55.748;48.752;2022-09-01T00:23:44;32.83;;;20.90;;
42602;SDS011;28233;55.748;48.752;2022-09-01T00:25:46;35.13;;;19.70;;
42602;SDS011;28233;55.748;48.752;2022-09-01T00:27:49;31.05;;;19.77;;
42602;SDS011;28233;55.748;48.752;2022-09-01T00:29:52;31.15;;;20.10;;
42602;SDS011;28233;55.748;48.752;2022-09-01T00:31:55;36.53;;;20.75;;
42602;SDS011;28233;55.748;48.752;2022-09-01T00:33:58;32.38;;;19.90;;
42602;SDS011;28233;55.748;48.752;2022-09-01T00:36:02;39.25;;;21.98;;
42602;SDS011;28233;55.748;48.752;2022-09-01T00:38:06;30.33;;;22.85;;
42602;SDS011;28233;55.748;48.752;2022-09-01T00:40:09;32.15;;;22.45;;
42602;SDS011;28233;55.748;48.752;2022-09-01T00:42:14;30.10;;;21.70;;
42602;SDS011;28233;55.748;48.752;2022-09-01T00:44:19;39.35;;;21.92;;
42602;SDS011;28233;55.748;48.752;2022-09-01T00:46:41;31.77;;;21.15;;
42602;SDS011;28233;55.748;48.752;2022-09-01T00:48:59;35.70;;;22.73;;
42602;SDS011;28233;55.748;48.752;2022-09-01T00:51:11;35.83;;;22.83;;
42602;SDS011;28233;55.748;48.752;2022-09-01T00:53:14;38.45;;;22.98;;
42602;SDS011;28233;55.748;48.752;2022-09-01T00:55:22;34.65;;;22.70;;
42602;SDS011;28233;55.748;48.752;2022-09-01T00:57:28;31.50;;;22.17;;
42602;SDS011;28233;55.748;48.752;2022-09-01T00:59:31;34.33;;;22.70;;
42602;SDS011;28233;55.748;48.752;2022-09-01T01:01:34;35.88;;;23.88;;
42602;SDS011;28233;55.748;48.752;2022-09-01T01:03:38;35.67;;;22.05;;
42602;SDS011;28233;55.748;48.752;2022-09-01T01:05:45;32.03;;;21.92;;
42602;SDS011;28233;55.748;48.752;2022-09-01T01:07:55;30.55;;;21.00;;
42602;SDS011;28233;55.748;48.752;2022-09-01T01:09:58;34.97;;;21.38;;
42602;SDS011;28233;55.748;48.752;2022-09-01T01:12:01;31.30;;;21.67;;
42602;SDS011;28233;55.748;48.752;2022-09-01T01:14:07;31.60;;;20.73;;
42602;SDS011;28233;55.748;48.752;2022-09-01T01:16:14;29.05;;;19.55;;
42602;SDS011;28233;55.748;48.752;2022-09-01T01:18:17;30.15;;;20.73;;
42602;SDS011;28233;55.748;48.752;2022-09-01T01:20:25;35.13;;;20.95;;
42602;SDS011;28233;55.748;48.752;2022-09-01T01:22:59;29.05;;;20.85;;
42602;SDS011;28233;55.748;48.752;2022-09-01T01:25:15;30.05;;;20.45;;
42602;SDS011;28233;55.748;48.752;2022-09-01T01:27:20;27.40;;;19.70;;
42602;SDS011;28233;55.748;48.752;2022-09-01T01:29:23;30.75;;;20.58;;
42602;SDS011;28233;55.748;48.752;2022-09-01T01:31:26;30.90;;;22.45;;
42602;SDS011;28233;55.748;48.752;2022-09-01T01:33:32;26.73;;;20.20;;
42602;SDS011;28233;55.748;48.752;2022-09-01T01:35:44;31.20;;;21.00;;
42602;SDS011;28233;55.748;48.752;2022-09-01T01:37:48;26.65;;;20.52;;
42602;SDS011;28233;55.748;48.752;2022-09-01T01:39:51;29.92;;;21.25;;
42602;SDS011;28233;55.748;48.752;2022-09-01T01:41:54;36.72;;;21.95;;
42602;SDS011;28233;55.748;48.752;2022-09-01T01:44:00;41.42;;;24.33;;
42602;SDS011;28233;55.748;48.752;2022-09-01T01:46:06;37.47;;;22.80;;
42602;SDS011;28233;55.748;48.752;2022-09-01T01:48:10;37.78;;;23.92;;
42602;SDS011;28233;55.748;48.752;2022-09-01T01:50:14;33.33;;;23.48;;
42602;SDS011;28233;55.748;48.752;2022-09-01T01:52:16;39.72;;;23.52;;
42602;SDS011;28233;55.748;48.752;2022-09-01T01:54:27;34.78;;;25.38;;
42602;SDS011;28233;55.748;48.752;2022-09-01T01:56:33;36.90;;;24.70;;
42602;SDS011;28233;55.748;48.752;2022-09-01T01:58:40;34.55;;;25.40;;
42602;SDS011;28233;55.748;48.752;2022-09-01T02:00:44;38.50;;;26.88;;
42602;SDS011;28233;55.748;48.752;2022-09-01T02:02:49;40.58;;;29.10;;
42602;SDS011;28233;55.748;48.752;2022-09-01T02:04:55;37.05;;;27.00;;
42602;SDS011;28233;55.748;48.752;2022-09-01T02:06:58;46.50;;;27.38;;
42602;SDS011;28233;55.748;48.752;2022-09-01T02:09:02;41.88;;;27.83;;
42602;SDS011;28233;55.748;48.752;2022-09-01T02:11:06;44.58;;;29.35;;
42602;SDS011;28233;55.748;48.752;2022-09-01T02:13:10;41.75;;;30.08;;
42602;SDS011;28233;55.748;48.752;2022-09-01T02:15:18;39.72;;;29.83;;
42602;SDS011;28233;55.748;48.752;2022-09-01T02:17:21;49.95;;;29.08;;
42602;SDS011;28233;55.748;48.752;2022-09-01T02:19:24;53.67;;;32.15;;
42602;SDS011;28233;55.748;48.752;2022-09-01T02:21:28;49.45;;;30.17;;
42602;SDS011;28233;55.748;48.752;2022-09-01T02:23:31;39.15;;;30.58;;
42602;SDS011;28233;55.748;48.752;2022-09-01T02:25:34;43.85;;;30.55;;
42602;SDS011;28233;55.748;48.752;2022-09-01T02:27:55;41.00;;;30.88;;
42602;SDS011;28233;55.748;48.752;2022-09-01T02:29:57;44.08;;;32.13;;
42602;SDS011;28233;55.748;48.752;2022-09-01T02:32:00;43.13;;;30.23;;
42602;SDS011;28233;55.748;48.752;2022-09-01T02:34:03;47.60;;;32.03;;
42602;SDS011;28233;55.748;48.752;2022-09-01T02:36:13;39.40;;;30.88;;
42602;SDS011;28233;55.748;48.752;2022-09-01T02:38:18;44.85;;;31.23;;
42602;SDS011;28233;55.748;48.752;2022-09-01T02:40:22;43.00;;;30.35;;
42602;SDS011;28233;55.748;48.752;2022-09-01T02:42:24;41.55;;;31.13;;
42602;SDS011;28233;55.748;48.752;2022-09-01T02:44:30;48.05;;;30.70;;
42602;SDS011;28233;55.748;48.752;2022-09-01T02:46:33;39.50;;;29.48;;
42602;SDS011;28233;55.748;48.752;2022-09-01T02:48:43;39.03;;;29.65;;
42602;SDS011;28233;55.748;48.752;2022-09-01T02:50:47;40.40;;;29.10;;
42602;SDS011;28233;55.748;48.752;2022-09-01T02:52:50;46.92;;;30.20;;
42602;SDS011;28233;55.748;48.752;2022-09-01T02:54:55;45.90;;;29.02;;
42602;SDS011;28233;55.748;48.752;2022-09-01T02:56:59;42.03;;;28.75;;
42602;SDS011;28233;55.748;48.752;2022-09-01T02:59:02;36.88;;;28.60;;
42602;SDS011;28233;55.748;48.752;2022-09-01T03:01:09;44.13;;;29.85;;
42602;SDS011;28233;55.748;48.752;2022-09-01T03:03:26;38.38;;;27.58;;
42602;SDS011;28233;55.748;48.752;2022-09-01T03:05:30;40.58;;;28.35;;
42602;SDS011;28233;55.748;48.752;2022-09-01T03:07:35;35.85;;;26.48;;
42602;SDS011;28233;55.748;48.752;2022-09-01T03:09:39;41.75;;;27.63;;
42602;SDS011;28233;55.748;48.752;2022-09-01T03:11:45;43.28;;;26.33;;
42602;SDS011;28233;55.748;48.752;2022-09-01T03:13:51;39.88;;;27.42;;
42602;SDS011;28233;55.748;48.752;2022-09-01T03:15:54;38.97;;;26.92;;
42602;SDS011;28233;55.748;48.752;2022-09-01T03:17:59;41.00;;;26.13;;
42602;SDS011;28233;55.748;48.752;2022-09-01T03:20:02;37.42;;;26.48;;
42602;SDS011;28233;55.748;48.752;2022-09-01T03:22:05;35.75;;;26.10;;
42602;SDS011;28233;55.748;48.752;2022-09-01T03:24:08;38.75;;;26.10;;
42602;SDS011;28233;55.748;48.752;2022-09-01T03:26:16;42.40;;;27.13;;
42602;SDS011;28233;55.748;48.752;2022-09-01T03:28:22;37.42;;;25.23;;
42602;SDS011;28233;55.748;48.752;2022-09-01T03:30:27;38.15;;;26.85;;
42602;SDS011;28233;55.748;48.752;2022-09-01T03:32:31;37.92;;;27.25;;
42602;SDS011;28233;55.748;48.752;2022-09-01T03:34:34;41.85;;;27.65;;
42602;SDS011;28233;55.748;48.752;2022-09-01T03:36:38;41.55;;;29.40;;
42602;SDS011;28233;55.748;48.752;2022-09-01T03:38:41;35.42;;;27.00;;
42602;SDS011;28233;55.748;48.752;2022-09-01T03:40:45;37.15;;;25.65;;
42602;SDS011;28233;55.748;48.752;2022-09-01T03:42:48;36.80;;;26.73;;
42602;SDS011;28233;55.748;48.752;2022-09-01T03:44:54;38.17;;;26.92;;
42602;SDS011;28233;55.748;48.752;2022-09-01T03:46:57;37.25;;;27.83;;
42602;SDS011;28233;55.748;48.752;2022-09-01T03:49:03;48.30;;;29.55;;
42602;SDS011;28233;55.748;48.752;2022-09-01T03:51:09;39.55;;;28.70;;
42602;SDS011;28233;55.748;48.752;2022-09-01T03:53:19;39.33;;;27.58;;
42602;SDS011;28233;55.748;48.752;2022-09-01T03:55:26;35.55;;;26.17;;
42602;SDS011;28233;55.748;48.752;2022-09-01T03:57:32;39.40;;;26.27;;
42602;SDS011;28233;55.748;48.752;2022-09-01T03:59:35;33.17;;;26.75;;
42602;SDS011;28233;55.748;48.752;2022-09-01T04:01:45;38.55;;;26.38;;
42602;SDS011;28233;55.748;48.752;2022-09-01T04:03:48;34.65;;;26.10;;
42602;SDS011;28233;55.748;48.752;2022-09-01T04:05:53;35.70;;;25.80;;
42602;SDS011;28233;55.748;48.752;2022-09-01T04:07:57;32.97;;;25.02;;
42602;SDS011;28233;55.748;48.752;2022-09-01T04:10:05;37.53;;;25.75;;
42602;SDS011;28233;55.748;48.752;2022-09-01T04:12:12;37.60;;;26.13;;
42602;SDS011;28233;55.748;48.752;2022-09-01T04:14:17;35.10;;;23.58;;
42602;SDS011;28233;55.748;48.752;2022-09-01T04:16:21;33.25;;;23.25;;
42602;SDS011;28233;55.748;48.752;2022-09-01T04:18:43;35.25;;;24.83;;
42602;SDS011;28233;55.748;48.752;2022-09-01T04:20:53;35.45;;;23.83;;
42602;SDS011;28233;55.748;48.752;2022-09-01T04:22:58;38.60;;;24.75;;
42602;SDS011;28233;55.748;48.752;2022-09-01T04:25:01;35.88;;;23.45;;
42602;SDS011;28233;55.748;48.752;2022-09-01T04:27:04;31.48;;;22.17;;
42602;SDS011;28233;55.748;48.752;2022-09-01T04:29:08;37.25;;;23.75;;
42602;SDS011;28233;55.748;48.752;2022-09-01T04:31:15;32.55;;;22.83;;
42602;SDS011;28233;55.748;48.752;2022-09-01T04:33:23;31.25;;;23.27;;
42602;SDS011;28233;55.748;48.752;2022-09-01T04:35:26;32.35;;;22.40;;
42602;SDS011;28233;55.748;48.752;2022-09-01T04:37:42;28.35;;;21.63;;
42602;SDS011;28233;55.748;48.752;2022-09-01T04:39:51;34.38;;;23.42;;
42602;SDS011;28233;55.748;48.752;2022-09-01T04:41:58;30.85;;;21.10;;
42602;SDS011;28233;55.748;48.752;2022-09-01T04:44:01;32.47;;;22.00;;
42602;SDS011;28233;55.748;48.752;2022-09-01T04:46:08;30.17;;;21.60;;
42602;SDS011;28233;55.748;48.752;2022-09-01T04:48:12;31.08;;;21.25;;
42602;SDS011;28233;55.748;48.752;2022-09-01T04:50:16;28.73;;;20.40;;
42602;SDS011;28233;55.748;48.752;2022-09-01T04:52:19;26.10;;;20.00;;
42602;SDS011;28233;55.748;48.752;2022-09-01T04:54:22;32.72;;;22.60;;
42602;SDS011;28233;55.748;48.752;2022-09-01T04:56:25;33.80;;;22.35;;
42602;SDS011;28233;55.748;48.752;2022-09-01T04:58:31;31.48;;;22.17;;
42602;SDS011;28233;55.748;48.752;2022-09-01T05:00:35;34.38;;;22.27;;
42602;SDS011;28233;55.748;48.752;2022-09-01T05:02:38;33.70;;;22.27;;
42602;SDS011;28233;55.748;48.752;2022-09-01T05:04:41;31.75;;;21.85;;
42602;SDS011;28233;55.748;48.752;2022-09-01T05:06:48;35.58;;;22.17;;
42602;SDS011;28233;55.748;48.752;2022-09-01T05:09:02;32.63;;;22.08;;
42602;SDS011;28233;55.748;48.752;2022-09-01T05:11:05;30.02;;;21.08;;
42602;SDS011;28233;55.748;48.752;2022-09-01T05:13:11;26.27;;;18.67;;
42602;SDS011;28233;55.748;48.752;2022-09-01T05:15:15;33.13;;;21.80;;
42602;SDS011;28233;55.748;48.752;2022-09-01T05:17:18;28.13;;;20.70;;
42602;SDS011;28233;55.748;48.752;2022-09-01T05:19:21;28.60;;;18.50;;
42602;SDS011;28233;55.748;48.752;2022-09-01T05:21:30;27.17;;;18.65;;
42602;SDS011;28233;55.748;48.752;2022-09-01T05:23:32;34.55;;;21.63;;
42602;SDS011;28233;55.748;48.752;2022-09-01T05:25:38;33.08;;;21.17;;
42602;SDS011;28233;55.748;48.752;2022-09-01T05:27:43;30.63;;;20.70;;
42602;SDS011;28233;55.748;48.752;2022-09-01T05:29:50;34.20;;;22.65;;
42602;SDS011;28233;55.748;48.752;2022-09-01T05:31:55;31.05;;;20.85;;
42602;SDS011;28233;55.748;48.752;2022-09-01T05:34:00;35.55;;;23.95;;
42602;SDS011;28233;55.748;48.752;2022-09-01T05:36:04;35.90;;;24.10;;
42602;SDS011;28233;55.748;48.752;2022-09-01T05:38:10;32.10;;;22.10;;
42602;SDS011;28233;55.748;48.752;2022-09-01T05:40:15;36.13;;;22.02;;
42602;SDS011;28233;55.748;48.752;2022-09-01T05:42:18;36.78;;;24.08;;
42602;SDS011;28233;55.748;48.752;2022-09-01T05:44:21;51.58;;;24.30;;
42602;SDS011;28233;55.748;48.752;2022-09-01T05:46:24;36.70;;;25.30;;
42602;SDS011;28233;55.748;48.752;2022-09-01T05:48:29;38.88;;;24.85;;
42602;SDS011;28233;55.748;48.752;2022-09-01T05:50:32;41.65;;;26.67;;
42602;SDS011;28233;55.748;48.752;2022-09-01T05:52:36;38.55;;;25.77;;
42602;SDS011;28233;55.748;48.752;2022-09-01T05:54:42;38.42;;;25.10;;
42602;SDS011;28233;55.748;48.752;2022-09-01T05:56:45;39.50;;;27.33;;
42602;SDS011;28233;55.748;48.752;2022-09-01T05:58:48;44.60;;;27.05;;
42602;SDS011;28233;55.748;48.752;2022-09-01T06:01:15;44.17;;;29.88;;
42602;SDS011;28233;55.748;48.752;2022-09-01T06:05:28;37.05;;;26.48;;
42602;SDS011;28233;55.748;48.752;2022-09-01T06:07:33;37.58;;;24.58;;
42602;SDS011;28233;55.748;48.752;2022-09-01T06:09:42;33.70;;;24.58;;
42602;SDS011;28233;55.748;48.752;2022-09-01T06:11:48;33.85;;;24.55;;
42602;SDS011;28233;55.748;48.752;2022-09-01T06:13:51;38.58;;;24.98;;
42602;SDS011;28233;55.748;48.752;2022-09-01T06:15:58;42.25;;;25.38;;
42602;SDS011;28233;55.748;48.752;2022-09-01T06:18:04;38.30;;;24.50;;
42602;SDS011;28233;55.748;48.752;2022-09-01T06:20:08;35.05;;;25.63;;
42602;SDS011;28233;55.748;48.752;2022-09-01T06:22:12;33.47;;;23.92;;
42602;SDS011;28233;55.748;48.752;2022-09-01T06:24:15;39.33;;;25.52;;
42602;SDS011;28233;55.748;48.752;2022-09-01T06:26:20;37.03;;;26.45;;
42602;SDS011;28233;55.748;48.752;2022-09-01T06:28:29;35.85;;;25.48;;
42602;SDS011;28233;55.748;48.752;2022-09-01T06:30:32;30.20;;;22.40;;
42602;SDS011;28233;55.748;48.752;2022-09-01T06:32:37;38.20;;;23.38;;
42602;SDS011;28233;55.748;48.752;2022-09-01T06:34:42;35.97;;;23.20;;
42602;SDS011;28233;55.748;48.752;2022-09-01T06:36:51;32.65;;;25.23;;
42602;SDS011;28233;55.748;48.752;2022-09-01T06:38:54;33.08;;;24.13;;
42602;SDS011;28233;55.748;48.752;2022-09-01T06:41:01;37.08;;;24.40;;
42602;SDS011;28233;55.748;48.752;2022-09-01T06:43:06;40.83;;;25.33;;
42602;SDS011;28233;55.748;48.752;2022-09-01T06:45:11;33.05;;;24.25;;
42602;SDS011;28233;55.748;48.752;2022-09-01T06:47:16;32.03;;;20.38;;
42602;SDS011;28233;55.748;48.752;2022-09-01T06:49:19;31.98;;;21.27;;
42602;SDS011;28233;55.748;48.752;2022-09-01T06:51:25;42.10;;;24.40;;
42602;SDS011;28233;55.748;48.752;2022-09-01T06:53:33;39.63;;;24.80;;
42602;SDS011;28233;55.748;48.752;2022-09-01T06:55:37;36.42;;;23.40;;
42602;SDS011;28233;55.748;48.752;2022-09-01T06:57:40;28.38;;;20.40;;
42602;SDS011;28233;55.748;48.752;2022-09-01T07:00:08;36.47;;;23.63;;
42602;SDS011;28233;55.748;48.752;2022-09-01T07:02:22;39.60;;;23.02;;
42602;SDS011;28233;55.748;48.752;2022-09-01T07:04:28;34.10;;;23.60;;
42602;SDS011;28233;55.748;48.752;2022-09-01T07:06:33;33.53;;;21.67;;
42602;SDS011;28233;55.748;48.752;2022-09-01T07:08:57;34.17;;;24.15;;
42602;SDS011;28233;55.748;48.752;2022-09-01T07:11:24;38.58;;;23.08;;
42602;SDS011;28233;55.748;48.752;2022-09-01T07:13:49;36.05;;;22.60;;
42602;SDS011;28233;55.748;48.752;2022-09-01T07:16:16;36.35;;;23.55;;
42602;SDS011;28233;55.748;48.752;2022-09-01T07:18:36;34.83;;;25.67;;
42602;SDS011;28233;55.748;48.752;2022-09-01T07:20:39;34.28;;;24.88;;
42602;SDS011;28233;55.748;48.752;2022-09-01T07:23:03;43.25;;;26.90;;
42602;SDS011;28233;55.748;48.752;2022-09-01T07:25:08;36.15;;;25.23;;
42602;SDS011;28233;55.748;48.752;2022-09-01T07:27:33;34.67;;;25.40;;
42602;SDS011;28233;55.748;48.752;2022-09-01T07:29:56;37.63;;;25.90;;
42602;SDS011;28233;55.748;48.752;2022-09-01T07:31:58;42.90;;;26.67;;
42602;SDS011;28233;55.748;48.752;2022-09-01T07:34:22;39.72;;;28.70;;
42602;SDS011;28233;55.748;48.752;2022-09-01T07:36:47;41.80;;;30.83;;
42602;SDS011;28233;55.748;48.752;2022-09-01T07:39:11;45.58;;;31.17;;
42602;SDS011;28233;55.748;48.752;2022-09-01T07:41:35;39.30;;;27.73;;
42602;SDS011;28233;55.748;48.752;2022-09-01T07:44:03;43.47;;;28.60;;
42602;SDS011;28233;55.748;48.752;2022-09-01T07:46:07;44.45;;;28.30;;
42602;SDS011;28233;55.748;48.752;2022-09-01T07:48:31;44.67;;;30.77;;
42602;SDS011;28233;55.748;48.752;2022-09-01T07:50:54;62.78;;;44.38;;
42602;SDS011;28233;55.748;48.752;2022-09-01T07:53:19;62.13;;;44.60;;
42602;SDS011;28233;55.748;48.752;2022-09-01T07:55:26;67.45;;;48.55;;
42602;SDS011;28233;55.748;48.752;2022-09-01T07:57:30;66.55;;;46.40;;
42602;SDS011;28233;55.748;48.752;2022-09-01T07:59:33;68.50;;;46.65;;
42602;SDS011;28233;55.748;48.752;2022-09-01T08:01:36;55.35;;;40.85;;
42602;SDS011;28233;55.748;48.752;2022-09-01T08:03:39;56.33;;;37.83;;
42602;SDS011;28233;55.748;48.752;2022-09-01T08:05:43;58.38;;;35.58;;
42602;SDS011;28233;55.748;48.752;2022-09-01T08:07:45;44.78;;;33.60;;
42602;SDS011;28233;55.748;48.752;2022-09-01T08:09:53;44.53;;;31.58;;
42602;SDS011;28233;55.748;48.752;2022-09-01T08:12:01;56.22;;;32.45;;
42602;SDS011;28233;55.748;48.752;2022-09-01T08:14:08;45.45;;;30.63;;
42602;SDS011;28233;55.748;48.752;2022-09-01T08:16:11;50.70;;;30.15;;
42602;SDS011;28233;55.748;48.752;2022-09-01T08:18:19;42.03;;;30.67;;
42602;SDS011;28233;55.748;48.752;2022-09-01T08:20:22;42.22;;;30.85;;
42602;SDS011;28233;55.748;48.752;2022-09-01T08:22:25;42.60;;;28.85;;
42602;SDS011;28233;55.748;48.752;2022-09-01T08:24:29;43.53;;;28.23;;
42602;SDS011;28233;55.748;48.752;2022-09-01T08:26:32;35.97;;;26.17;;
42602;SDS011;28233;55.748;48.752;2022-09-01T08:28:35;36.55;;;27.33;;
42602;SDS011;28233;55.748;48.752;2022-09-01T08:30:38;44.97;;;30.30;;
42602;SDS011;28233;55.748;48.752;2022-09-01T08:32:52;43.60;;;29.38;;
42602;SDS011;28233;55.748;48.752;2022-09-01T08:34:55;34.47;;;26.80;;
42602;SDS011;28233;55.748;48.752;2022-09-01T08:36:58;35.85;;;27.20;;
42602;SDS011;28233;55.748;48.752;2022-09-01T08:39:02;36.67;;;25.40;;
42602;SDS011;28233;55.748;48.752;2022-09-01T08:41:05;30.23;;;23.05;;
42602;SDS011;28233;55.748;48.752;2022-09-01T08:45:50;38.92;;;21.13;;
42602;SDS011;28233;55.748;48.752;2022-09-01T08:47:57;37.10;;;20.30;;
42602;SDS011;28233;55.748;48.752;2022-09-01T08:50:28;24.80;;;14.88;;
42602;SDS011;28233;55.748;48.752;2022-09-01T08:52:35;17.33;;;11.60;;
42602;SDS011;28233;55.748;48.752;2022-09-01T08:54:46;21.02;;;12.23;;
42602;SDS011;28233;55.748;48.752;2022-09-01T08:56:56;16.70;;;10.18;;
42602;SDS011;28233;55.748;48.752;2022-09-01T08:59:02;18.85;;;10.13;;
42602;SDS011;28233;55.748;48.752;2022-09-01T09:01:10;23.23;;;11.57;;
42602;SDS011;28233;55.748;48.752;2022-09-01T09:03:31;20.15;;;12.18;;
42602;SDS011;28233;55.748;48.752;2022-09-01T09:06:12;17.73;;;11.95;;
42602;SDS011;28233;55.748;48.752;2022-09-01T09:10:42;17.08;;;11.35;;
42602;SDS011;28233;55.748;48.752;2022-09-01T09:13:00;17.80;;;10.93;;
42602;SDS011;28233;55.748;48.752;2022-09-01T09:17:48;14.32;;;9.73;;
42602;SDS011;28233;55.748;48.752;2022-09-01T09:20:02;14.90;;;9.75;;
42602;SDS011;28233;55.748;48.752;2022-09-01T09:22:07;13.10;;;9.15;;
42602;SDS011;28233;55.748;48.752;2022-09-01T09:24:18;14.30;;;9.40;;
42602;SDS011;28233;55.748;48.752;2022-09-01T09:26:54;14.52;;;9.63;;
42602;SDS011;28233;55.748;48.752;2022-09-01T09:29:00;12.77;;;8.48;;
42602;SDS011;28233;55.748;48.752;2022-09-01T09:33:53;15.45;;;10.15;;
42602;SDS011;28233;55.748;48.752;2022-09-01T09:36:17;17.58;;;12.55;;
42602;SDS011;28233;55.748;48.752;2022-09-01T09:38:26;16.50;;;11.27;;
42602;SDS011;28233;55.748;48.752;2022-09-01T09:40:35;13.70;;;11.20;;
42602;SDS011;28233;55.748;48.752;2022-09-01T09:43:00;12.48;;;10.35;;
42602;SDS011;28233;55.748;48.752;2022-09-01T09:45:12;18.92;;;10.13;;
42602;SDS011;28233;55.748;48.752;2022-09-01T09:47:40;14.10;;;9.20;;
42602;SDS011;28233;55.748;48.752;2022-09-01T09:49:46;14.60;;;9.07;;
42602;SDS011;28233;55.748;48.752;2022-09-01T09:51:51;20.67;;;10.52;;
42602;SDS011;28233;55.748;48.752;2022-09-01T09:54:09;13.82;;;10.40;;
42602;SDS011;28233;55.748;48.752;2022-09-01T09:58:21;20.73;;;11.30;;
42602;SDS011;28233;55.748;48.752;2022-09-01T10:00:29;13.82;;;11.25;;
42602;SDS011;28233;55.748;48.752;2022-09-01T10:02:37;17.85;;;11.75;;
42602;SDS011;28233;55.748;48.752;2022-09-01T10:04:43;19.42;;;12.25;;
42602;SDS011;28233;55.748;48.752;2022-09-01T10:06:46;22.20;;;13.32;;
42602;SDS011;28233;55.748;48.752;2022-09-01T10:08:49;20.25;;;12.82;;
42602;SDS011;28233;55.748;48.752;2022-09-01T10:10:51;17.00;;;12.52;;
42602;SDS011;28233;55.748;48.752;2022-09-01T10:12:59;14.35;;;10.88;;
42602;SDS011;28233;55.748;48.752;2022-09-01T10:15:06;19.85;;;12.68;;
42602;SDS011;28233;55.748;48.752;2022-09-01T10:17:27;17.02;;;11.60;;
42602;SDS011;28233;55.748;48.752;2022-09-01T10:19:36;27.30;;;11.85;;
42602;SDS011;28233;55.748;48.752;2022-09-01T10:21:43;23.52;;;11.45;;
42602;SDS011;28233;55.748;48.752;2022-09-01T10:23:47;17.98;;;9.90;;
42602;SDS011;28233;55.748;48.752;2022-09-01T10:25:50;12.30;;;9.25;;
42602;SDS011;28233;55.748;48.752;2022-09-01T10:28:05;10.40;;;8.57;;
42602;SDS011;28233;55.748;48.752;2022-09-01T10:30:16;11.32;;;8.07;;
42602;SDS011;28233;55.748;48.752;2022-09-01T10:32:25;16.25;;;8.75;;
42602;SDS011;28233;55.748;48.752;2022-09-01T10:34:54;17.25;;;9.48;;
42602;SDS011;28233;55.748;48.752;2022-09-01T10:37:01;10.85;;;8.23;;
42602;SDS011;28233;55.748;48.752;2022-09-01T10:39:06;16.50;;;8.80;;
42602;SDS011;28233;55.748;48.752;2022-09-01T10:41:41;16.90;;;9.68;;
42602;SDS011;28233;55.748;48.752;2022-09-01T10:43:46;19.60;;;10.63;;
42602;SDS011;28233;55.748;48.752;2022-09-01T10:45:51;20.08;;;11.18;;
42602;SDS011;28233;55.748;48.752;2022-09-01T10:48:25;26.75;;;11.43;;
42602;SDS011;28233;55.748;48.752;2022-09-01T10:50:33;18.90;;;11.40;;
42602;SDS011;28233;55.748;48.752;2022-09-01T10:59:47;18.83;;;12.00;;
42602;SDS011;28233;55.748;48.752;2022-09-01T11:02:08;19.23;;;11.65;;
42602;SDS011;28233;55.748;48.752;2022-09-01T11:06:52;25.05;;;12.68;;
42602;SDS011;28233;55.748;48.752;2022-09-01T11:11:28;17.50;;;10.00;;
42602;SDS011;28233;55.748;48.752;2022-09-01T11:13:42;14.90;;;11.77;;
42602;SDS011;28233;55.748;48.752;2022-09-01T11:15:51;17.90;;;10.45;;
42602;SDS011;28233;55.748;48.752;2022-09-01T11:17:55;14.27;;;11.23;;
42602;SDS011;28233;55.748;48.752;2022-09-01T11:20:06;20.42;;;12.18;;
42602;SDS011;28233;55.748;48.752;2022-09-01T11:26:45;16.98;;;12.35;;
42602;SDS011;28233;55.748;48.752;2022-09-01T11:28:49;26.08;;;12.05;;
42602;SDS011;28233;55.748;48.752;2022-09-01T11:33:11;19.98;;;13.98;;
42602;SDS011;28233;55.748;48.752;2022-09-01T11:35:17;26.17;;;14.00;;
42602;SDS011;28233;55.748;48.752;2022-09-01T11:37:23;17.67;;;12.77;;
42602;SDS011;28233;55.748;48.752;2022-09-01T11:39:32;17.75;;;13.30;;
42602;SDS011;28233;55.748;48.752;2022-09-01T11:41:45;23.05;;;12.75;;
42602;SDS011;28233;55.748;48.752;2022-09-01T11:46:44;24.42;;;13.60;;
42602;SDS011;28233;55.748;48.752;2022-09-01T11:48:47;17.80;;;13.40;;
42602;SDS011;28233;55.748;48.752;2022-09-01T11:50:57;20.85;;;13.63;;
42602;SDS011;28233;55.748;48.752;2022-09-01T11:53:06;22.90;;;15.05;;
42602;SDS011;28233;55.748;48.752;2022-09-01T11:55:10;17.13;;;13.38;;
42602;SDS011;28233;55.748;48.752;2022-09-01T11:57:46;17.10;;;12.32;;
42602;SDS011;28233;55.748;48.752;2022-09-01T11:59:42;17.58;;;10.95;;
42602;SDS011;28233;55.748;48.752;2022-09-01T12:01:45;16.90;;;12.57;;
42602;SDS011;28233;55.748;48.752;2022-09-01T12:03:48;17.55;;;11.95;;
42602;SDS011;28233;55.748;48.752;2022-09-01T12:05:56;20.65;;;11.88;;
42602;SDS011;28233;55.748;48.752;2022-09-01T12:08:04;19.00;;;11.77;;
42602;SDS011;28233;55.748;48.752;2022-09-01T12:10:21;16.67;;;11.55;;
42602;SDS011;28233;55.748;48.752;2022-09-01T12:12:31;19.98;;;11.73;;
42602;SDS011;28233;55.748;48.752;2022-09-01T12:14:34;22.98;;;11.90;;
42602;SDS011;28233;55.748;48.752;2022-09-01T12:17:01;13.93;;;10.20;;
42602;SDS011;28233;55.748;48.752;2022-09-01T12:19:06;15.05;;;10.50;;
42602;SDS011;28233;55.748;48.752;2022-09-01T12:21:15;13.57;;;9.85;;
42602;SDS011;28233;55.748;48.752;2022-09-01T12:23:35;14.00;;;10.38;;
42602;SDS011;28233;55.748;48.752;2022-09-01T12:25:41;15.48;;;10.63;;
42602;SDS011;28233;55.748;48.752;2022-09-01T12:27:44;22.52;;;10.20;;
42602;SDS011;28233;55.748;48.752;2022-09-01T12:29:47;15.32;;;10.00;;
42602;SDS011;28233;55.748;48.752;2022-09-01T12:31:52;16.45;;;10.35;;
42602;SDS011;28233;55.748;48.752;2022-09-01T12:33:55;14.40;;;10.10;;
42602;SDS011;28233;55.748;48.752;2022-09-01T12:36:41;18.85;;;10.52;;
42602;SDS011;28233;55.748;48.752;2022-09-01T12:38:27;12.63;;;9.15;;
42602;SDS011;28233;55.748;48.752;2022-09-01T12:40:32;13.73;;;8.88;;
42602;SDS011;28233;55.748;48.752;2022-09-01T12:42:37;15.45;;;8.02;;
42602;SDS011;28233;55.748;48.752;2022-09-01T12:44:51;9.45;;;7.97;;
42602;SDS011;28233;55.748;48.752;2022-09-01T12:47:08;14.55;;;7.55;;
42602;SDS011;28233;55.748;48.752;2022-09-01T12:49:15;12.05;;;7.97;;
42602;SDS011;28233;55.748;48.752;2022-09-01T12:51:35;11.13;;;7.95;;
42602;SDS011;28233;55.748;48.752;2022-09-01T12:53:38;11.68;;;8.60;;
42602;SDS011;28233;55.748;48.752;2022-09-01T12:55:52;8.45;;;7.47;;